KLVS

Las Vegas Municipal Airport

Las Vegas, New Mexico, USA
KLVS 211722Z 2118/2218 20013G20KT P6SM FEW050 FM212200 18012KT P6SM VCSH SCT070 FM220200 16009KT P6SM FEW100 FM220700 05006KT P6SM SKC FM221600 25012G20KT P6SM SKC
Issued Valid From Valid To
Jun-21 @ 17:22 UTC
(44 minutes ago)
Jun-21 @ 18:00 UTC
(6 minutes ago)
Jun-22 @ 18:00 UTC
(in 24 hours)
Jun-21 @ 18:00 to Jun-21 @ 22:00
KLVS 211722Z 2118/2218 20013G20KT P6SM FEW050
Wind Visibility Clouds
200° at 13 knots
 Gusting to 20 knots
Greater than 6 miles
  • Few at 5,000' AGL
From Jun-21 @ 22:00 to Jun-22 @ 02:00
FM212200 18012KT P6SM VCSH SCT070
Wind Visibility Clouds
180° at 12 knots Greater than 6 miles
  • Scattered at 7,000' AGL
From Jun-22 @ 02:00 to Jun-22 @ 07:00
FM220200 16009KT P6SM FEW100
Wind Visibility Clouds
160° at 9 knots Greater than 6 miles
  • Few at 10,000' AGL
From Jun-22 @ 07:00 to Jun-22 @ 16:00
FM220700 05006KT P6SM SKC
Wind Visibility Clouds
50° at 6 knots Greater than 6 miles
  • Clear skies
From Jun-22 @ 16:00 to Jun-22 @ 18:00
FM221600 25012G20KT P6SM SKC
Wind Visibility Clouds
250° at 12 knots
 Gusting to 20 knots
Greater than 6 miles
  • Clear skies
KLVS 211722Z 2118/2218 20013G20KT P6SM FEW050 FM212200 18012KT P6SM VCSH SCT070 FM220200 16009KT P6SM FEW100 FM220700 05006KT P6SM SKC FM221600 25012G20KT P6SM SKC
Issued Jun-21 @ 17:22 UTC
(44 minutes ago)
Valid From Jun-21 @ 18:00 UTC
(6 minutes ago)
Valid To Jun-22 @ 18:00 UTC
(in 24 hours)
Jun-21 @ 18:00 - Jun-21 @ 22:00
Wind Visibility
200° at 13 knots
 Gusting to 20 knots
Greater than 6 miles
Clouds
  • Few at 5,000' AGL
From Jun-21 @ 22:00 - Jun-22 @ 02:00
Wind Visibility
180° at 12 knots Greater than 6 miles
Clouds
  • Scattered at 7,000' AGL
From Jun-22 @ 02:00 - Jun-22 @ 07:00
Wind Visibility
160° at 9 knots Greater than 6 miles
Clouds
  • Few at 10,000' AGL
From Jun-22 @ 07:00 - Jun-22 @ 16:00
Wind Visibility
50° at 6 knots Greater than 6 miles
Clouds
  • Clear skies
From Jun-22 @ 16:00 - Jun-22 @ 18:00
Wind Visibility
250° at 12 knots
 Gusting to 20 knots
Greater than 6 miles
Clouds
  • Clear skies